Time;durP1;ratioP1;P1;durP2;ratioP2;P2;SDS_P1;SDS_P2;PMS_P1;PMS_P2;Temp;Humidity;BMP_temperature;BMP_pressure;BME280_temperature;BME280_humidity;BME280_pressure;Samples;Min_cycle;Max_cycle;Signal;HPM_P1;HPM_P2
2022/05/19 00:03:49;;;;;;;4.68;2.55;;;22.40;65.50;;;;;;10411231;28;20041;-61
2022/05/19 00:08:49;;;;;;;3.35;2.80;;;22.40;65.50;;;;;;10416038;28;20481;-61
2022/05/19 00:13:50;;;;;;;3.83;2.63;;;22.40;65.50;;;;;;10419105;28;20030;-60
2022/05/19 00:18:51;;;;;;;3.78;2.95;;;22.40;65.50;;;;;;10416951;28;20158;-61
2022/05/19 00:23:52;;;;;;;2.75;2.28;;;22.40;65.40;;;;;;10422200;28;20476;-61
2022/05/19 00:28:52;;;;;;;3.58;2.80;;;22.40;65.40;;;;;;10420030;28;20033;-62
2022/05/19 00:33:53;;;;;;;4.13;3.15;;;22.40;65.40;;;;;;10419651;28;20064;-60
2022/05/19 00:38:54;;;;;;;3.20;2.90;;;22.40;65.40;;;;;;10419592;28;20164;-61
2022/05/19 00:44:02;;;;;;;4.28;2.22;;;22.40;65.40;;;;;;10419322;28;20044;-61
2022/05/19 00:49:21;;;;;;;3.03;2.60;;;22.40;65.40;;;;;;10419459;28;20130;-61
2022/05/19 00:54:26;;;;;;;;;;;22.40;65.30;;;;;;10419037;28;20037;-61
2022/05/19 00:59:47;;;;;;;4.35;2.95;;;22.40;65.30;;;;;;10418971;28;20292;-61
2022/05/19 01:05:13;;;;;;;3.97;3.17;;;22.40;65.40;;;;;;10418437;28;20045;-61
2022/05/19 01:10:15;;;;;;;3.30;2.72;;;22.30;65.30;;;;;;10428870;28;20406;-61
2022/05/19 01:15:17;;;;;;;4.57;2.85;;;22.40;65.90;;;;;;10418053;28;20033;-61
2022/05/19 01:20:22;;;;;;;3.33;2.92;;;22.30;65.20;;;;;;10432540;28;20454;-61
2022/05/19 01:25:47;;;;;;;3.10;2.60;;;22.30;65.20;;;;;;10420086;28;20251;-61
2022/05/19 01:30:48;;;;;;;3.00;2.58;;;22.30;65.20;;;;;;10431763;28;20086;-61
2022/05/19 01:35:48;;;;;;;2.97;2.40;;;22.30;65.20;;;;;;10417462;28;20520;-61
2022/05/19 01:41:29;;;;;;;3.50;2.70;;;22.30;65.20;;;;;;10417060;28;20037;-60
2022/05/19 01:46:35;;;;;;;3.05;2.75;;;22.30;65.20;;;;;;10415886;28;20053;-61
2022/05/19 01:51:44;;;;;;;3.20;2.70;;;22.30;65.20;;;;;;10416708;28;20041;-61
2022/05/19 01:57:21;;;;;;;3.45;3.15;;;22.30;65.20;;;;;;10415383;28;20061;-61
2022/05/19 02:02:35;;;;;;;2.75;2.50;;;22.30;65.20;;;;;;10416176;28;20543;-61
2022/05/19 02:07:38;;;;;;;3.45;3.05;;;22.30;65.20;;;;;;10416295;28;20038;-61
2022/05/19 02:12:39;;;;;;;5.05;2.75;;;22.30;65.20;;;;;;10414786;28;20163;-61
2022/05/19 02:17:43;;;;;;;3.72;2.80;;;22.30;65.20;;;;;;10413443;28;20834;-61
2022/05/19 02:22:44;;;;;;;2.90;2.60;;;22.30;65.10;;;;;;10414860;28;20479;-61
2022/05/19 02:27:52;;;;;;;3.90;3.33;;;22.30;65.20;;;;;;10430795;28;20477;-60
2022/05/19 02:32:53;;;;;;;3.65;2.60;;;22.30;65.20;;;;;;10413963;28;20068;-61
2022/05/19 02:37:56;;;;;;;4.20;2.70;;;22.30;65.20;;;;;;10414077;28;20037;-61
2022/05/19 02:42:57;;;;;;;4.30;2.97;;;22.30;65.20;;;;;;10414524;28;20037;-59
2022/05/19 02:47:59;;;;;;;3.28;2.92;;;22.30;65.20;;;;;;10414655;28;20117;-61
2022/05/19 02:52:59;;;;;;;3.70;3.20;;;22.30;65.20;;;;;;10414196;28;20025;-61
2022/05/19 02:58:00;;;;;;;3.55;2.92;;;22.30;65.20;;;;;;10414439;28;20044;-61
2022/05/19 03:03:01;;;;;;;3.90;3.47;;;22.30;65.20;;;;;;10413783;28;20037;-61
2022/05/19 03:08:03;;;;;;;5.90;3.67;;;22.20;65.10;;;;;;10412625;28;20044;-61
2022/05/19 03:13:05;;;;;;;4.68;3.50;;;22.30;65.20;;;;;;10413647;28;20029;-61
2022/05/19 03:18:05;;;;;;;4.90;3.45;;;22.20;65.20;;;;;;10413529;28;20076;-61
2022/05/19 03:23:07;;;;;;;4.07;3.08;;;22.30;65.20;;;;;;10415716;28;20419;-61
2022/05/19 03:28:11;;;;;;;5.10;4.30;;;22.20;65.30;;;;;;10413297;28;20516;-61
2022/05/19 03:33:13;;;;;;;5.28;3.85;;;22.20;65.30;;;;;;10413373;28;20049;-60
2022/05/19 03:38:13;;;;;;;4.93;3.88;;;22.20;65.40;;;;;;10411927;28;20077;-61
2022/05/19 03:43:14;;;;;;;4.28;3.58;;;22.20;65.40;;;;;;10417103;28;20061;-61
2022/05/19 03:48:15;;;;;;;4.82;3.30;;;22.20;65.40;;;;;;10426559;28;20025;-61
2022/05/19 03:53:16;;;;;;;4.10;3.63;;;22.20;65.40;;;;;;10424161;28;20505;-61
2022/05/19 03:58:16;;;;;;;5.93;4.82;;;22.20;65.40;;;;;;10439217;28;20041;-61
2022/05/19 04:03:17;;;;;;;5.32;3.75;;;22.20;65.40;;;;;;10425911;28;20106;-61
2022/05/19 04:08:18;;;;;;;5.03;3.95;;;22.20;65.40;;;;;;10434945;28;20131;-61
2022/05/19 04:13:18;;;;;;;5.00;3.92;;;22.20;65.50;;;;;;10428726;28;20497;-61
2022/05/19 04:18:19;;;;;;;5.30;3.70;;;22.20;65.40;;;;;;10423719;28;20033;-61
2022/05/19 04:23:20;;;;;;;5.88;3.90;;;22.20;65.50;;;;;;10426289;28;20025;-61
2022/05/19 04:28:21;;;;;;;3.45;3.15;;;22.20;65.50;;;;;;10424992;28;20033;-61
2022/05/19 04:33:22;;;;;;;3.65;3.17;;;22.20;65.40;;;;;;10425207;28;20506;-61
2022/05/19 04:38:23;;;;;;;4.18;3.75;;;22.20;65.40;;;;;;10414709;28;20065;-61
2022/05/19 04:43:24;;;;;;;5.38;3.38;;;22.20;65.40;;;;;;10425285;28;20029;-61
2022/05/19 04:48:35;;;;;;;4.07;3.30;;;22.20;65.40;;;;;;10421473;28;20115;-58
2022/05/19 04:53:36;;;;;;;5.88;3.30;;;22.20;66.60;;;;;;10419955;28;20029;-49
2022/05/19 04:58:36;;;;;;;4.53;3.47;;;22.40;65.80;;;;;;10417472;28;20108;-54
2022/05/19 05:03:37;;;;;;;4.78;3.35;;;22.50;65.70;;;;;;10418211;28;20034;-55
2022/05/19 05:08:38;;;;;;;5.85;3.13;;;22.40;66.80;;;;;;10417898;28;20040;-54
2022/05/19 05:13:38;;;;;;;4.65;3.15;;;22.40;66.90;;;;;;10416667;28;20065;-57
2022/05/19 05:18:39;;;;;;;9.45;2.90;;;22.40;66.50;;;;;;10411912;28;20112;-51
2022/05/19 05:23:41;;;;;;;7.68;3.03;;;22.30;66.40;;;;;;10418925;28;20037;-54
2022/05/19 05:28:42;;;;;;;8.23;3.60;;;22.40;66.60;;;;;;10409397;28;20163;-56
2022/05/19 05:33:42;;;;;;;12.13;3.38;;;22.30;66.00;;;;;;10414781;28;20195;-56
2022/05/19 05:38:43;;;;;;;9.00;3.85;;;22.30;66.20;;;;;;10415484;28;20037;-56
2022/05/19 05:43:44;;;;;;;8.27;3.03;;;22.30;66.70;;;;;;10415573;28;20044;-56
2022/05/19 05:48:48;;;;;;;9.30;2.90;;;22.30;66.90;;;;;;10428514;28;20116;-57
2022/05/19 05:53:49;;;;;;;12.30;3.50;;;22.30;66.30;;;;;;10414317;28;20029;-57
2022/05/19 05:58:50;;;;;;;9.10;2.90;;;22.30;66.30;;;;;;10413118;28;20026;-56
2022/05/19 06:03:51;;;;;;;7.90;2.70;;;22.30;66.00;;;;;;10415597;28;20091;-56
2022/05/19 06:08:52;;;;;;;10.93;3.92;;;22.30;65.40;;;;;;10415118;28;20491;-56
2022/05/19 06:13:52;;;;;;;12.73;2.55;;;22.30;66.10;;;;;;10414708;28;20041;-56
2022/05/19 06:18:53;;;;;;;11.10;3.45;;;22.30;66.60;;;;;;10411580;28;20044;-57
2022/05/19 06:23:54;;;;;;;7.63;2.88;;;22.30;66.20;;;;;;10417373;28;20059;-56
2022/05/19 06:28:54;;;;;;;10.43;3.05;;;22.30;66.30;;;;;;10403621;28;20053;-56
2022/05/19 06:33:55;;;;;;;11.13;2.70;;;22.30;66.10;;;;;;10409772;28;20127;-56
2022/05/19 06:38:55;;;;;;;7.43;2.70;;;22.30;66.40;;;;;;10409448;28;20179;-57
2022/05/19 06:43:56;;;;;;;9.73;3.95;;;22.30;66.90;;;;;;10413132;28;20036;-57
2022/05/19 06:48:57;;;;;;;7.35;2.78;;;22.30;67.20;;;;;;10413001;28;20068;-57
2022/05/19 06:53:58;;;;;;;6.40;2.40;;;22.30;67.20;;;;;;10427694;28;20429;-57
2022/05/19 06:58:59;;;;;;;13.25;3.15;;;22.30;67.20;;;;;;10413263;28;20264;-57
2022/05/19 07:04:00;;;;;;;3.30;2.30;;;22.30;67.50;;;;;;10428023;28;20381;-58
2022/05/19 07:09:00;;;;;;;5.30;3.20;;;22.30;67.50;;;;;;10410755;28;20112;-58
2022/05/19 07:14:06;;;;;;;3.92;2.35;;;22.30;67.50;;;;;;10412356;28;20501;-57
2022/05/19 07:24:26;;;;;;;6.22;2.63;;;22.30;66.80;;;;;;10411310;28;20068;-56
2022/05/19 07:29:27;;;;;;;5.25;2.13;;;22.30;66.70;;;;;;10410983;28;20057;-57
2022/05/19 07:34:32;;;;;;;3.33;1.67;;;22.30;66.70;;;;;;10424347;28;20525;-57
2022/05/19 07:39:33;;;;;;;4.85;2.50;;;22.30;66.60;;;;;;10424634;28;20036;-56
2022/05/19 07:44:35;;;;;;;5.10;2.63;;;22.30;66.70;;;;;;10411501;28;20045;-57
2022/05/19 07:49:36;;;;;;;5.57;1.88;;;22.30;66.60;;;;;;10412860;28;20072;-57
2022/05/19 07:54:37;;;;;;;5.32;2.15;;;22.30;66.60;;;;;;10412069;28;20561;-56
2022/05/19 07:59:38;;;;;;;3.72;1.98;;;22.30;66.70;;;;;;10427623;28;20458;-57
2022/05/19 08:04:39;;;;;;;3.13;2.42;;;22.30;66.60;;;;;;10411978;28;20021;-56
2022/05/19 08:20:19;;;;;;;4.97;2.60;;;22.30;67.00;;;;;;10411799;28;20034;-56
2022/05/19 08:25:24;;;;;;;7.30;2.53;;;22.30;66.80;;;;;;10411803;28;20030;-56
2022/05/19 08:30:26;;;;;;;3.78;2.30;;;22.30;66.80;;;;;;10414123;28;20025;-56
2022/05/19 08:35:27;;;;;;;5.85;2.25;;;22.40;66.80;;;;;;10434297;28;20045;-57
2022/05/19 08:40:29;;;;;;;7.05;3.33;;;22.40;66.90;;;;;;10419216;28;20029;-56
2022/05/19 08:45:44;;;;;;;5.05;2.42;;;22.40;67.10;;;;;;10434058;28;20096;-56
2022/05/19 08:50:49;;;;;;;3.60;2.70;;;22.40;67.00;;;;;;10433737;28;20034;-57
2022/05/19 08:56:00;;;;;;;4.93;2.67;;;22.50;66.90;;;;;;10418377;28;20036;-56
2022/05/19 09:01:25;;;;;;;6.07;3.60;;;22.50;66.80;;;;;;10418062;28;20052;-57
2022/05/19 09:12:22;;;;;;;3.92;2.45;;;22.50;66.90;;;;;;10429441;28;20037;-56
2022/05/19 09:17:31;;;;;;;5.60;2.90;;;22.50;66.70;;;;;;10417638;28;20462;-57
2022/05/19 09:22:33;;;;;;;4.53;2.47;;;22.50;66.70;;;;;;10416146;28;20124;-56
2022/05/19 09:27:41;;;;;;;7.45;2.85;;;22.50;66.90;;;;;;10417555;28;20025;-56
2022/05/19 09:32:52;;;;;;;4.13;2.72;;;22.50;66.80;;;;;;10416802;28;20065;-56
2022/05/19 09:38:31;;;;;;;3.05;2.20;;;22.50;66.80;;;;;;10432032;28;20034;-57
2022/05/19 09:43:36;;;;;;;3.35;1.98;;;22.50;66.70;;;;;;10429347;28;20096;-57
2022/05/19 09:48:47;;;;;;;4.70;2.58;;;22.50;66.80;;;;;;10416520;28;20462;-56
2022/05/19 09:53:54;;;;;;;5.18;2.70;;;22.50;66.70;;;;;;10431281;28;20039;-57
2022/05/19 09:59:07;;;;;;;8.65;3.15;;;22.50;66.70;;;;;;10415902;28;20025;-56
2022/05/19 10:04:37;;;;;;;3.80;2.33;;;22.50;66.60;;;;;;10416051;28;20068;-56
2022/05/19 10:09:43;;;;;;;4.30;2.70;;;22.50;66.70;;;;;;10415679;28;20032;-57
2022/05/19 10:14:56;;;;;;;3.92;2.85;;;22.50;66.70;;;;;;10415036;28;20049;-56
2022/05/19 10:20:24;;;;;;;4.32;2.85;;;22.50;66.80;;;;;;10415112;28;20034;-56
2022/05/19 10:26:01;;;;;;;3.30;2.17;;;22.60;66.90;;;;;;10417349;28;20033;-57
2022/05/19 10:31:28;;;;;;;4.55;3.13;;;22.60;66.90;;;;;;10414044;28;20119;-56
2022/05/19 10:37:05;;;;;;;3.22;2.58;;;22.60;66.80;;;;;;10414735;28;20041;-57
2022/05/19 10:42:21;;;;;;;3.85;3.08;;;22.60;66.70;;;;;;10414137;28;20401;-56
2022/05/19 10:47:37;;;;;;;3.75;2.85;;;22.70;66.60;;;;;;10412725;28;20029;-57
2022/05/19 10:53:12;;;;;;;3.83;2.60;;;22.70;66.50;;;;;;10428329;28;20120;-56
2022/05/19 10:58:37;;;;;;;3.28;2.28;;;22.70;66.50;;;;;;10413598;28;20055;-57
2022/05/19 11:04:00;;;;;;;11.82;3.55;;;22.70;66.40;;;;;;10413492;28;20029;-56
2022/05/19 11:09:27;;;;;;;4.22;3.08;;;22.70;66.30;;;;;;10413133;28;20437;-56
2022/05/19 11:14:49;;;;;;;3.80;2.97;;;22.70;66.40;;;;;;10427320;28;20029;-57
2022/05/19 11:20:06;;;;;;;4.47;2.70;;;22.70;66.20;;;;;;10412950;28;20090;-56
2022/05/19 11:30:55;;;;;;;3.85;2.28;;;22.70;66.40;;;;;;10426125;28;20037;-56
2022/05/19 11:36:03;;;;;;;3.88;2.55;;;22.60;66.50;;;;;;10426846;28;20398;-57
2022/05/19 11:41:18;;;;;;;3.13;2.60;;;22.60;66.50;;;;;;10427778;28;20029;-58
2022/05/19 11:46:39;;;;;;;3.17;2.58;;;22.60;66.50;;;;;;10412166;28;20035;-55
2022/05/19 11:57:37;;;;;;;3.35;2.83;;;22.60;66.80;;;;;;10424488;28;20113;-56
2022/05/19 12:03:18;;;;;;;3.05;2.75;;;22.50;66.70;;;;;;10426734;28;20049;-57
2022/05/19 12:08:43;;;;;;;3.22;2.50;;;22.50;66.70;;;;;;10412105;28;20406;-57
2022/05/19 12:14:10;;;;;;;2.65;2.25;;;22.50;66.80;;;;;;10434646;28;20401;-56
2022/05/19 12:19:52;;;;;;;3.75;2.50;;;22.50;66.80;;;;;;10416993;28;20034;-57
2022/05/19 12:25:07;;;;;;;3.35;2.78;;;22.50;66.50;;;;;;10420987;28;20044;-57
2022/05/19 12:36:06;;;;;;;5.68;3.83;;;22.50;66.50;;;;;;10413856;28;20042;-56
2022/05/19 12:41:36;;;;;;;3.92;2.20;;;22.40;66.50;;;;;;10418908;28;20171;-58
2022/05/19 12:46:38;;;;;;;;;;;22.40;66.60;;;;;;10419529;28;20107;-58
2022/05/19 12:51:52;;;;;;;5.00;2.15;;;22.40;66.60;;;;;;10418791;28;20384;-59
2022/05/19 12:57:18;;;;;;;3.53;2.08;;;22.40;66.80;;;;;;10418591;28;20029;-57
2022/05/19 13:02:55;;;;;;;3.47;1.95;;;22.40;66.70;;;;;;10415565;28;20041;-58
2022/05/19 13:08:31;;;;;;;2.85;2.10;;;22.40;66.80;;;;;;10406315;28;20030;-58
2022/05/19 13:13:39;;;;;;;4.53;2.33;;;22.40;66.80;;;;;;10417122;28;20053;-58
2022/05/19 13:18:47;;;;;;;2.83;1.98;;;22.40;67.00;;;;;;10431883;28;20458;-57
2022/05/19 13:23:49;;;;;;;2.53;2.00;;;22.40;67.00;;;;;;10419546;28;20029;-57
2022/05/19 13:34:53;;;;;;;2.17;1.65;;;22.40;67.60;;;;;;10417235;28;20152;-57
2022/05/19 13:40:18;;;;;;;3.60;2.00;;;22.40;67.10;;;;;;10416978;28;20037;-58
2022/05/19 13:45:24;;;;;;;3.47;2.30;;;22.40;67.10;;;;;;10416490;28;20037;-58
2022/05/19 13:50:31;;;;;;;2.70;1.88;;;22.40;67.00;;;;;;10416491;28;20067;-58
2022/05/19 13:55:36;;;;;;;2.55;1.90;;;22.40;66.90;;;;;;10432013;28;20507;-58
2022/05/19 14:00:38;;;;;;;3.95;2.20;;;22.40;67.00;;;;;;10430994;28;20041;-58
2022/05/19 14:05:42;;;;;;;2.95;2.05;;;22.40;67.20;;;;;;10415521;28;20025;-58
2022/05/19 14:10:48;;;;;;;2.78;1.92;;;22.40;67.20;;;;;;10401129;28;20025;-58
2022/05/19 14:16:07;;;;;;;3.63;2.78;;;22.40;67.30;;;;;;10415536;28;20481;-58
2022/05/19 14:21:22;;;;;;;2.60;1.87;;;22.40;67.30;;;;;;10416660;28;20033;-58
2022/05/19 14:26:52;;;;;;;3.42;1.92;;;22.40;67.40;;;;;;10402652;28;20056;-58
2022/05/19 14:32:00;;;;;;;4.63;2.60;;;22.40;67.20;;;;;;10414406;28;20037;-58
2022/05/19 14:37:32;;;;;;;4.87;2.23;;;22.40;67.40;;;;;;10414666;28;20029;-58
2022/05/19 14:47:54;;;;;;;3.13;2.50;;;22.50;67.60;;;;;;10414277;28;20045;-58
2022/05/19 14:53:07;;;;;;;2.38;2.13;;;22.50;67.60;;;;;;10429275;28;20021;-58
2022/05/19 14:58:22;;;;;;;3.80;2.10;;;22.50;67.50;;;;;;10427808;28;20061;-58
2022/05/19 15:03:23;;;;;;;3.15;2.45;;;22.50;67.50;;;;;;10413424;28;20123;-57
2022/05/19 15:08:25;;;;;;;3.35;2.40;;;22.50;67.60;;;;;;10428329;28;20104;-58
2022/05/19 15:13:26;;;;;;;2.85;2.15;;;22.50;67.60;;;;;;10426886;28;20051;-58
2022/05/19 15:18:27;;;;;;;3.78;2.47;;;22.50;67.80;;;;;;10423543;28;20033;-58
2022/05/19 15:23:28;;;;;;;4.78;2.40;;;22.50;67.70;;;;;;10410992;28;20056;-58
2022/05/19 15:28:29;;;;;;;3.70;1.95;;;22.60;67.80;;;;;;10412988;28;20037;-58
2022/05/19 15:33:29;;;;;;;3.55;2.40;;;22.60;67.60;;;;;;10419620;28;20132;-57
2022/05/19 15:38:31;;;;;;;9.50;7.55;;;22.50;67.50;;;;;;10428153;28;20116;-56
2022/05/19 15:43:32;;;;;;;7.72;3.30;;;22.60;69.80;;;;;;10407414;28;20163;-55
2022/05/19 15:48:33;;;;;;;5.13;2.75;;;22.50;68.60;;;;;;10412633;28;20048;-56
2022/05/19 15:53:34;;;;;;;6.72;4.40;;;22.50;69.00;;;;;;10409975;28;20061;-56
2022/05/19 15:58:36;;;;;;;5.53;3.25;;;22.50;71.00;;;;;;10410983;28;20026;-55
2022/05/19 16:03:39;;;;;;;3.13;2.60;;;22.50;70.30;;;;;;10411292;28;20034;-56
2022/05/19 16:08:40;;;;;;;4.30;3.13;;;22.50;69.90;;;;;;10423775;28;20033;-56
2022/05/19 16:13:44;;;;;;;60.15;36.63;;;22.50;69.80;;;;;;10403381;28;20034;-55
2022/05/19 16:18:45;;;;;;;27.73;12.25;;;22.50;72.40;;;;;;10411122;28;20026;-55
2022/05/19 16:23:48;;;;;;;14.82;9.70;;;22.70;72.50;;;;;;10413133;28;20026;-56
2022/05/19 16:28:49;;;;;;;20.50;11.23;;;22.70;71.20;;;;;;10425652;28;20072;-56
2022/05/19 16:33:49;;;;;;;17.02;7.88;;;22.70;72.10;;;;;;10400799;28;20540;-54
2022/05/19 16:38:50;;;;;;;14.65;8.15;;;22.80;73.50;;;;;;10411758;28;20099;-56
2022/05/19 16:43:51;;;;;;;12.05;8.35;;;22.90;72.90;;;;;;10410518;28;20039;-55
2022/05/19 16:48:54;;;;;;;10.55;7.80;;;22.90;72.70;;;;;;10411292;28;20512;-55
2022/05/19 16:59:14;;;;;;;15.05;8.98;;;22.90;72.90;;;;;;10418058;28;20065;-57
2022/05/19 17:04:14;;;;;;;18.83;8.55;;;22.90;72.30;;;;;;10417097;28;20061;-54
2022/05/19 17:09:15;;;;;;;17.83;8.43;;;22.90;72.60;;;;;;10418903;28;20067;-54
2022/05/19 17:14:16;;;;;;;13.55;7.47;;;22.90;72.50;;;;;;10418347;28;20034;-55
2022/05/19 17:19:16;;;;;;;14.27;7.70;;;22.80;72.30;;;;;;10417536;28;20041;-56
2022/05/19 17:24:17;;;;;;;11.55;6.53;;;22.70;72.10;;;;;;10415850;28;20120;-55
2022/05/19 17:29:18;;;;;;;13.15;7.05;;;22.70;72.20;;;;;;10416868;28;20060;-54
2022/05/19 17:34:18;;;;;;;16.48;6.97;;;22.60;72.10;;;;;;10416798;28;20175;-56
2022/05/19 17:39:19;;;;;;;7.63;6.68;;;22.60;71.80;;;;;;10416673;28;20501;-56
2022/05/19 17:44:20;;;;;;;10.93;5.90;;;22.60;71.50;;;;;;10415714;28;20087;-57
2022/05/19 17:49:20;;;;;;;11.38;5.80;;;22.60;71.60;;;;;;10416092;28;20131;-57
2022/05/19 17:54:22;;;;;;;9.23;5.15;;;22.60;70.90;;;;;;10431321;28;20052;-56
2022/05/19 17:59:22;;;;;;;7.45;5.07;;;22.60;70.60;;;;;;10431565;28;20030;-57
2022/05/19 18:04:24;;;;;;;7.25;4.45;;;22.60;70.50;;;;;;10430970;28;20053;-57
2022/05/19 18:09:25;;;;;;;7.13;4.88;;;22.50;70.30;;;;;;10415989;28;20025;-56
2022/05/19 18:19:45;;;;;;;;;;;22.50;70.00;;;;;;10410863;28;20042;-57
2022/05/19 18:24:46;;;;;;;8.38;4.80;;;22.50;70.10;;;;;;10406002;28;20300;-56
2022/05/19 18:29:46;;;;;;;9.63;5.28;;;22.50;70.30;;;;;;10414663;28;20061;-56
2022/05/19 18:34:47;;;;;;;12.07;4.63;;;22.50;70.30;;;;;;10411848;28;20077;-53
2022/05/19 18:39:48;;;;;;;6.43;4.85;;;22.50;70.50;;;;;;10414761;28;20112;-55
2022/05/19 18:44:54;;;;;;;7.05;4.40;;;22.50;70.10;;;;;;10414158;28;20068;-56
2022/05/19 18:49:56;;;;;;;6.30;4.07;;;22.50;69.90;;;;;;10411675;28;20041;-56
2022/05/19 18:55:02;;;;;;;6.35;4.00;;;22.50;69.90;;;;;;10407861;28;20033;-53
2022/05/19 19:00:05;;;;;;;7.00;4.30;;;22.50;70.10;;;;;;10412261;28;20036;-55
2022/05/19 19:05:06;;;;;;;8.70;4.47;;;22.50;70.20;;;;;;10413903;28;20083;-56
2022/05/19 19:10:07;;;;;;;8.82;4.90;;;22.50;70.10;;;;;;10413162;28;20079;-56
2022/05/19 19:15:10;;;;;;;6.72;4.35;;;22.50;69.50;;;;;;10407244;28;20037;-56
2022/05/19 19:20:10;;;;;;;8.73;6.40;;;22.50;69.20;;;;;;10408622;28;20061;-54
2022/05/19 19:25:11;;;;;;;9.88;5.38;;;22.40;67.40;;;;;;10407564;28;20059;-54
2022/05/19 19:30:12;;;;;;;9.55;5.53;;;22.40;66.20;;;;;;10395278;28;20057;-55
2022/05/19 19:35:13;;;;;;;9.35;5.85;;;22.40;67.10;;;;;;10406677;28;20041;-56
2022/05/19 19:40:18;;;;;;;9.80;5.90;;;22.30;67.10;;;;;;10412447;28;20037;-55
2022/05/19 19:45:20;;;;;;;8.25;5.55;;;22.40;67.50;;;;;;10412110;28;20037;-53
2022/05/19 19:55:42;;;;;;;8.88;4.82;;;22.40;67.40;;;;;;10411636;28;20056;-54
2022/05/19 20:00:42;;;;;;;6.15;4.22;;;22.40;67.30;;;;;;10410690;28;20448;-54
2022/05/19 20:05:44;;;;;;;6.22;4.53;;;22.40;67.30;;;;;;10411066;28;20064;-54
2022/05/19 20:10:45;;;;;;;5.57;4.03;;;22.40;67.10;;;;;;10407906;28;20088;-55
2022/05/19 20:15:49;;;;;;;4.53;3.70;;;22.30;67.20;;;;;;10409069;28;20452;-55
2022/05/19 20:20:49;;;;;;;6.25;3.50;;;22.30;67.10;;;;;;10408407;28;20026;-55
2022/05/19 20:25:50;;;;;;;4.53;3.38;;;22.30;67.10;;;;;;10414209;28;20760;-56
2022/05/19 20:30:51;;;;;;;5.47;4.03;;;22.30;67.10;;;;;;10419495;28;20285;-54
2022/05/19 20:35:52;;;;;;;6.05;3.95;;;22.30;67.00;;;;;;10419004;28;20457;-53
2022/05/19 20:40:53;;;;;;;6.22;3.42;;;22.30;67.00;;;;;;10418590;28;20036;-53
2022/05/19 20:45:54;;;;;;;6.80;3.70;;;22.30;67.10;;;;;;10419561;28;20104;-54
2022/05/19 20:50:57;;;;;;;7.28;3.85;;;22.30;67.00;;;;;;10419368;28;20385;-54
2022/05/19 20:55:57;;;;;;;4.72;3.25;;;22.30;66.90;;;;;;10419411;28;20420;-54
2022/05/19 21:00:58;;;;;;;5.90;3.70;;;22.30;67.00;;;;;;10417454;28;20029;-55
2022/05/19 21:05:59;;;;;;;6.05;3.55;;;22.30;66.90;;;;;;10418856;28;20064;-53
2022/05/19 21:11:01;;;;;;;4.18;3.47;;;22.30;66.90;;;;;;10418337;28;20075;-54
2022/05/19 21:16:02;;;;;;;4.60;3.45;;;22.30;66.90;;;;;;10418308;28;20200;-55
2022/05/19 21:21:03;;;;;;;3.63;3.28;;;22.20;66.80;;;;;;10415390;28;20037;-53
2022/05/19 21:26:04;;;;;;;4.22;3.47;;;22.20;66.80;;;;;;10419259;28;20105;-55
2022/05/19 21:31:05;;;;;;;4.03;2.80;;;22.30;66.80;;;;;;10404568;28;20075;-53
2022/05/19 21:36:08;;;;;;;5.90;3.40;;;22.20;66.80;;;;;;10416900;28;20052;-55
2022/05/19 21:41:10;;;;;;;5.43;3.20;;;22.20;66.70;;;;;;10417415;28;20037;-54
2022/05/19 21:46:11;;;;;;;5.10;2.90;;;22.20;66.70;;;;;;10417491;28;20034;-54
2022/05/19 21:56:31;;;;;;;7.90;3.42;;;22.20;66.70;;;;;;10417097;28;20037;-54
2022/05/19 22:01:32;;;;;;;3.38;2.97;;;22.20;66.60;;;;;;10416465;28;20065;-55
2022/05/19 22:11:52;;;;;;;4.63;2.30;;;22.10;66.50;;;;;;10415410;28;20038;-55
2022/05/19 22:16:52;;;;;;;4.18;3.17;;;22.10;66.50;;;;;;10430568;28;20104;-53
2022/05/19 22:21:53;;;;;;;4.40;3.00;;;22.10;66.40;;;;;;10413542;28;20069;-52
2022/05/19 22:26:54;;;;;;;6.00;3.00;;;22.10;66.40;;;;;;10415872;28;20114;-54
2022/05/19 22:31:54;;;;;;;6.05;3.00;;;22.10;66.30;;;;;;10414913;28;20076;-53
2022/05/19 22:36:55;;;;;;;5.25;2.97;;;22.10;66.30;;;;;;10415532;28;20091;-54
2022/05/19 22:41:56;;;;;;;3.78;2.72;;;22.10;66.20;;;;;;10414778;28;20553;-54
2022/05/19 22:52:20;;;;;;;4.53;2.95;;;22.10;66.20;;;;;;10414567;28;20045;-53
2022/05/19 22:57:21;;;;;;;4.78;3.22;;;22.10;66.20;;;;;;10414887;28;20816;-54
2022/05/19 23:02:23;;;;;;;4.38;2.65;;;22.00;66.00;;;;;;10413677;28;20049;-54
2022/05/19 23:07:23;;;;;;;2.95;2.50;;;22.00;66.00;;;;;;10414133;28;20494;-53
2022/05/19 23:12:24;;;;;;;3.53;2.50;;;22.00;65.90;;;;;;10414143;28;20025;-52
2022/05/19 23:17:25;;;;;;;2.88;2.55;;;22.00;65.90;;;;;;10413856;28;20114;-52
2022/05/19 23:22:26;;;;;;;4.15;3.03;;;22.00;66.00;;;;;;10416080;28;20030;-50
2022/05/19 23:27:27;;;;;;;3.85;2.10;;;22.00;65.90;;;;;;10413409;28;20112;-53
2022/05/19 23:37:47;;;;;;;3.63;2.47;;;22.00;65.80;;;;;;10413806;28;20037;-53
2022/05/19 23:42:48;;;;;;;4.57;2.83;;;22.00;65.80;;;;;;10413122;28;20029;-53
2022/05/19 23:47:49;;;;;;;4.43;2.38;;;22.00;65.80;;;;;;10412936;28;20390;-54
2022/05/19 23:52:49;;;;;;;3.97;2.40;;;22.00;65.70;;;;;;10413281;28;20456;-54
2022/05/19 23:57:50;;;;;;;4.38;2.85;;;22.00;65.70;;;;;;10412735;28;20063;-53
